createdAt,value
2019-05-09T00:00:33.610Z,16.60
2019-05-09T00:03:03.313Z,16.60
2019-05-09T00:05:29.776Z,16.70
2019-05-09T00:07:56.900Z,16.70
2019-05-09T00:10:37.784Z,16.70
2019-05-09T00:12:54.034Z,16.60
2019-05-09T00:15:24.226Z,16.60
2019-05-09T00:17:53.297Z,16.70
2019-05-09T00:20:25.459Z,16.50
2019-05-09T00:22:53.921Z,16.70
2019-05-09T00:25:23.498Z,16.50
2019-05-09T00:27:50.149Z,16.70
2019-05-09T00:30:19.044Z,16.60
2019-05-09T00:32:47.901Z,16.60
2019-05-09T00:35:16.745Z,16.40
2019-05-09T00:38:00.906Z,16.50
2019-05-09T00:40:27.965Z,16.70
2019-05-09T00:42:55.019Z,16.70
2019-05-09T00:45:43.782Z,16.70
2019-05-09T00:48:14.078Z,16.80
2019-05-09T00:50:43.605Z,16.90
2019-05-09T00:53:10.439Z,16.90
2019-05-09T00:55:37.519Z,16.80
2019-05-09T00:58:04.615Z,16.80
2019-05-09T01:00:33.326Z,17.00
2019-05-09T01:03:00.861Z,17.00
2019-05-09T01:05:27.924Z,16.70
2019-05-09T01:07:55.015Z,16.80
2019-05-09T01:10:23.717Z,16.80
2019-05-09T01:12:51.099Z,16.70
2019-05-09T01:15:19.062Z,16.50
2019-05-09T01:17:46.199Z,16.60
2019-05-09T01:20:14.716Z,16.30
2019-05-09T01:22:43.621Z,16.50
2019-05-09T01:25:12.863Z,16.50
2019-05-09T01:27:39.874Z,16.40
2019-05-09T01:30:07.544Z,16.20
2019-05-09T01:32:51.150Z,16.10
2019-05-09T01:35:18.234Z,15.90
2019-05-09T01:37:45.319Z,15.90
2019-05-09T01:40:13.305Z,15.80
2019-05-09T01:42:40.729Z,15.70
2019-05-09T01:45:07.909Z,15.70
2019-05-09T01:47:35.009Z,15.70
2019-05-09T01:50:03.934Z,15.60
2019-05-09T01:52:31.050Z,15.20
2019-05-09T01:54:58.119Z,15.40
2019-05-09T01:57:25.189Z,15.40
2019-05-09T01:59:53.216Z,15.10
2019-05-09T02:02:20.406Z,15.10
2019-05-09T02:04:47.964Z,15.10
2019-05-09T02:07:15.006Z,15.30
2019-05-09T02:09:43.407Z,15.10
2019-05-09T02:12:10.629Z,15.00
2019-05-09T02:14:56.419Z,15.20
2019-05-09T02:17:33.353Z,15.10
2019-05-09T02:20:00.035Z,15.00
2019-05-09T02:22:34.509Z,14.90
2019-05-09T02:30:06.113Z,14.90
2019-05-09T02:32:35.339Z,14.80
2019-05-09T02:35:06.078Z,14.80
2019-05-09T02:37:33.135Z,14.70
2019-05-09T02:40:00.220Z,14.90
2019-05-09T02:42:28.092Z,14.60
2019-05-09T02:44:55.495Z,14.70
2019-05-09T02:47:24.332Z,14.50
2019-05-09T02:49:51.557Z,14.50
2019-05-09T02:52:19.748Z,14.60
2019-05-09T02:54:50.021Z,14.80
2019-05-09T02:57:18.483Z,14.70
2019-05-09T02:59:49.284Z,14.60
2019-05-09T03:02:23.708Z,14.70
2019-05-09T03:04:52.031Z,14.70
2019-05-09T03:07:20.881Z,14.60
2019-05-09T03:09:48.256Z,14.60
2019-05-09T03:12:26.012Z,14.40
2019-05-09T03:14:44.412Z,14.50
2019-05-09T03:17:13.296Z,14.60
2019-05-09T03:19:40.365Z,14.60
2019-05-09T03:22:09.263Z,14.50
2019-05-09T03:24:39.180Z,14.60
2019-05-09T03:27:12.908Z,14.70
2019-05-09T03:29:44.607Z,14.60
2019-05-09T03:32:11.697Z,14.60
2019-05-09T03:34:38.775Z,14.20
2019-05-09T03:37:08.330Z,14.30
2019-05-09T03:39:34.847Z,14.30
2019-05-09T03:42:03.722Z,14.50
2019-05-09T03:44:30.772Z,14.50
2019-05-09T03:47:17.370Z,14.30
2019-05-09T03:49:47.648Z,14.30
2019-05-09T03:52:14.882Z,14.20
2019-05-09T03:55:00.137Z,14.30
2019-05-09T03:57:29.061Z,14.40
2019-05-09T03:59:57.266Z,14.50
2019-05-09T04:02:24.547Z,14.50
2019-05-09T04:04:51.791Z,14.30
2019-05-09T04:07:18.904Z,14.20
2019-05-09T04:09:47.956Z,14.20
2019-05-09T04:12:18.147Z,14.20
2019-05-09T04:14:47.560Z,14.30
2019-05-09T04:17:14.843Z,14.30
2019-05-09T04:19:41.916Z,14.20
2019-05-09T04:22:11.286Z,14.20
2019-05-09T04:24:41.071Z,14.20
2019-05-09T04:27:12.489Z,14.10
2019-05-09T04:29:39.574Z,14.10
2019-05-09T04:32:07.954Z,14.20
2019-05-09T04:34:35.302Z,14.20
2019-05-09T04:37:02.353Z,14.30
2019-05-09T04:39:30.097Z,14.20
2019-05-09T04:42:03.488Z,14.10
2019-05-09T04:44:30.996Z,14.00
2019-05-09T04:47:00.133Z,14.20
2019-05-09T04:49:29.634Z,14.10
2019-05-09T04:51:58.274Z,14.00
2019-05-09T04:54:25.449Z,14.20
2019-05-09T04:56:53.924Z,14.00
2019-05-09T04:59:21.121Z,14.00
2019-05-09T05:01:50.052Z,13.80
2019-05-09T05:04:18.357Z,13.80
2019-05-09T05:06:47.609Z,13.90
2019-05-09T05:09:14.438Z,13.80
2019-05-09T05:11:41.676Z,13.80
2019-05-09T05:14:10.562Z,13.90
2019-05-09T05:16:39.335Z,13.90
2019-05-09T05:19:07.546Z,13.90
2019-05-09T05:21:34.749Z,13.80
2019-05-09T05:24:09.460Z,13.90
2019-05-09T05:26:38.083Z,14.00
2019-05-09T05:29:05.295Z,14.30
2019-05-09T05:31:32.325Z,14.30
2019-05-09T05:34:04.598Z,14.10
2019-05-09T05:36:31.740Z,14.10
2019-05-09T05:38:58.836Z,13.90
2019-05-09T05:41:28.317Z,13.90
2019-05-09T05:43:55.168Z,14.00
2019-05-09T05:46:24.019Z,14.00
2019-05-09T05:48:52.289Z,14.00
2019-05-09T05:51:19.439Z,13.90
2019-05-09T05:53:48.110Z,13.90
2019-05-09T05:56:17.529Z,13.90
2019-05-09T05:58:44.429Z,13.90
2019-05-09T06:01:11.552Z,13.90
2019-05-09T06:03:40.433Z,13.90
2019-05-09T06:06:08.798Z,13.90
2019-05-09T06:08:38.072Z,13.90
2019-05-09T06:11:09.478Z,14.00
2019-05-09T06:13:34.476Z,14.00
2019-05-09T06:16:01.549Z,13.90
2019-05-09T06:18:28.858Z,13.80
2019-05-09T06:20:58.158Z,14.00
2019-05-09T06:23:24.919Z,13.90
2019-05-09T06:25:51.994Z,14.20
2019-05-09T06:28:19.084Z,14.10
2019-05-09T06:30:47.699Z,13.80
2019-05-09T06:33:14.984Z,13.70
2019-05-09T06:35:42.534Z,13.70
2019-05-09T06:38:09.700Z,13.80
2019-05-09T06:40:38.305Z,14.10
2019-05-09T06:43:19.383Z,14.30
2019-05-09T06:46:04.803Z,14.20
2019-05-09T06:48:32.108Z,14.10
2019-05-09T06:50:59.189Z,14.20
2019-05-09T06:53:27.238Z,14.00
2019-05-09T06:55:54.858Z,14.20
2019-05-09T06:58:31.937Z,14.10
2019-05-09T07:01:13.118Z,14.30
2019-05-09T07:03:48.190Z,14.50
2019-05-09T07:06:23.082Z,14.70
2019-05-09T07:08:54.699Z,14.80
2019-05-09T07:11:27.421Z,14.90
2019-05-09T07:13:54.158Z,14.80
2019-05-09T07:16:21.251Z,14.90
2019-05-09T07:18:48.596Z,14.90
2019-05-09T07:21:15.687Z,14.90
2019-05-09T07:23:42.782Z,14.80
2019-05-09T07:26:14.427Z,15.00
2019-05-09T07:28:42.290Z,15.00
2019-05-09T07:31:11.767Z,15.10
2019-05-09T07:33:47.847Z,15.20
2019-05-09T07:36:15.187Z,14.90
2019-05-09T07:38:42.256Z,15.20
2019-05-09T07:41:09.776Z,15.40
2019-05-09T07:43:38.471Z,15.60
2019-05-09T07:46:08.886Z,16.00
2019-05-09T07:51:11.972Z,16.50
2019-05-09T07:53:39.106Z,16.70
2019-05-09T07:56:07.920Z,16.80
2019-05-09T07:58:37.525Z,16.50
2019-05-09T08:01:04.345Z,16.40
2019-05-09T08:03:31.432Z,16.30
2019-05-09T08:05:58.507Z,16.20
2019-05-09T08:08:27.825Z,16.00
2019-05-09T08:10:54.560Z,15.80
2019-05-09T08:13:22.290Z,15.70
2019-05-09T08:15:49.356Z,15.60
2019-05-09T08:18:17.462Z,15.90
2019-05-09T08:20:44.876Z,15.80
2019-05-09T08:23:11.926Z,16.10
2019-05-09T08:25:39.283Z,15.90
2019-05-09T08:28:08.797Z,16.20
2019-05-09T08:30:36.419Z,16.40
2019-05-09T08:33:08.224Z,16.70
2019-05-09T08:35:38.114Z,17.00
2019-05-09T08:38:04.656Z,17.10
2019-05-09T08:40:31.766Z,17.70
2019-05-09T08:42:59.205Z,18.00
2019-05-09T08:45:30.812Z,18.10
2019-05-09T08:47:57.826Z,18.50
2019-05-09T08:50:42.087Z,18.70
2019-05-09T08:53:09.205Z,18.80
2019-05-09T08:55:38.345Z,18.80
2019-05-09T08:58:07.785Z,18.30
2019-05-09T09:00:34.650Z,18.70
2019-05-09T09:03:01.689Z,18.80
2019-05-09T09:05:29.020Z,19.20
2019-05-09T09:07:57.786Z,19.60
2019-05-09T09:10:25.151Z,19.50
2019-05-09T09:12:52.189Z,19.60
2019-05-09T09:15:19.281Z,19.90
2019-05-09T09:17:48.880Z,19.60
2019-05-09T09:20:17.989Z,20.00
2019-05-09T09:22:44.455Z,20.10
2019-05-09T09:25:11.535Z,20.50
2019-05-09T09:27:38.597Z,20.50
2019-05-09T09:30:17.858Z,20.70
2019-05-09T09:32:35.103Z,20.60
2019-05-09T09:35:03.286Z,20.80
2019-05-09T09:37:45.046Z,21.00
2019-05-09T09:40:00.889Z,20.80
2019-05-09T09:42:28.330Z,20.80
2019-05-09T09:44:58.320Z,20.80
2019-05-09T09:47:24.963Z,20.80
2019-05-09T09:49:55.199Z,20.80
2019-05-09T09:52:21.081Z,20.90
2019-05-09T09:54:48.335Z,20.60
2019-05-09T09:57:18.976Z,20.40
2019-05-09T09:59:48.397Z,20.40
2019-05-09T10:02:18.198Z,20.20
2019-05-09T10:04:48.034Z,20.50
2019-05-09T10:07:15.120Z,20.40
2019-05-09T10:09:42.540Z,19.80
2019-05-09T10:12:09.801Z,20.10
2019-05-09T10:14:41.586Z,20.10
2019-05-09T10:17:10.576Z,20.20
2019-05-09T10:19:48.305Z,20.50
2019-05-09T10:22:23.325Z,20.30
2019-05-09T10:24:47.864Z,20.20
2019-05-09T10:27:18.481Z,20.20
2019-05-09T10:29:47.961Z,20.40
2019-05-09T10:32:18.146Z,20.20
2019-05-09T10:34:45.100Z,20.40
2019-05-09T10:37:12.244Z,20.70
2019-05-09T10:39:39.526Z,20.80
2019-05-09T10:42:20.597Z,20.60
2019-05-09T10:44:49.596Z,20.60
2019-05-09T10:47:24.011Z,20.80
2019-05-09T10:49:51.086Z,20.70
2019-05-09T10:52:18.433Z,21.00
2019-05-09T10:54:45.583Z,20.80
2019-05-09T10:57:12.799Z,21.10
2019-05-09T10:59:40.161Z,21.20
2019-05-09T11:02:09.510Z,21.30
2019-05-09T11:04:37.968Z,21.30
2019-05-09T11:07:07.867Z,21.10
2019-05-09T11:09:34.529Z,21.00
2019-05-09T11:12:01.567Z,21.10
2019-05-09T11:14:36.510Z,21.50
2019-05-09T11:17:07.920Z,21.20
2019-05-09T11:19:28.947Z,21.20
2019-05-09T11:21:58.495Z,21.50
2019-05-09T11:24:42.979Z,21.80
2019-05-09T11:26:59.889Z,22.20
2019-05-09T11:29:28.126Z,22.20
2019-05-09T11:31:55.463Z,22.10
2019-05-09T11:34:22.565Z,21.90
2019-05-09T11:36:50.065Z,21.90
2019-05-09T11:39:35.209Z,21.70
2019-05-09T11:41:48.823Z,22.10
2019-05-09T11:44:18.291Z,22.10
2019-05-09T11:46:44.819Z,22.40
2019-05-09T11:49:12.089Z,22.30
2019-05-09T11:51:39.194Z,22.00
2019-05-09T11:54:08.895Z,22.20
2019-05-09T11:59:02.906Z,22.80
2019-05-09T12:01:29.988Z,22.90
2019-05-09T12:03:57.754Z,23.20
2019-05-09T12:06:25.369Z,23.20
2019-05-09T12:08:52.449Z,22.40
2019-05-09T12:11:19.535Z,22.30
2019-05-09T12:13:48.606Z,21.60
2019-05-09T12:16:18.115Z,21.70
2019-05-09T12:18:44.664Z,21.70
2019-05-09T12:21:19.096Z,21.50
2019-05-09T12:23:48.801Z,22.00
2019-05-09T12:26:18.046Z,22.00
2019-05-09T12:28:44.795Z,22.10
2019-05-09T12:31:11.899Z,22.60
2019-05-09T12:33:39.169Z,22.80
2019-05-09T12:36:09.280Z,23.30
2019-05-09T12:38:38.798Z,23.20
2019-05-09T12:41:07.712Z,22.70
2019-05-09T12:43:34.015Z,22.50
2019-05-09T12:46:01.091Z,22.70
2019-05-09T12:48:28.185Z,22.40
2019-05-09T12:50:55.343Z,22.40
2019-05-09T12:53:22.379Z,22.50
2019-05-09T12:55:59.180Z,22.50
2019-05-09T12:58:28.075Z,22.40
2019-05-09T13:00:58.596Z,22.70
2019-05-09T13:03:27.820Z,22.40
2019-05-09T13:05:57.337Z,22.90
2019-05-09T13:08:24.385Z,23.00
2019-05-09T13:10:51.530Z,23.30
2019-05-09T13:13:19.751Z,23.20
2019-05-09T13:15:49.054Z,23.50
2019-05-09T13:18:24.541Z,23.70
2019-05-09T13:20:45.125Z,23.40
2019-05-09T13:23:12.237Z,23.50
2019-05-09T13:25:39.340Z,23.20
2019-05-09T13:28:08.274Z,22.90
2019-05-09T13:30:37.961Z,23.10
2019-05-09T13:33:10.104Z,23.40
2019-05-09T13:35:34.780Z,23.40
2019-05-09T13:38:01.939Z,23.60
2019-05-09T13:40:29.210Z,23.80
2019-05-09T13:42:58.537Z,23.90
2019-05-09T13:45:25.369Z,23.60
2019-05-09T13:47:52.512Z,24.00
2019-05-09T13:50:19.585Z,24.00
2019-05-09T13:52:49.173Z,23.80
2019-05-09T13:55:17.796Z,23.70
2019-05-09T13:57:45.123Z,23.50
2019-05-09T14:00:12.585Z,23.00
2019-05-09T14:02:39.658Z,23.00
2019-05-09T14:05:08.994Z,22.50
2019-05-09T14:07:37.713Z,22.40
2019-05-09T14:10:09.036Z,21.90
2019-05-09T14:12:37.972Z,21.80
2019-05-09T14:15:08.441Z,21.60
2019-05-09T14:17:46.002Z,21.80
2019-05-09T14:20:08.721Z,21.80
2019-05-09T14:22:34.997Z,21.90
2019-05-09T14:25:02.939Z,22.30
2019-05-09T14:27:30.407Z,22.20
2019-05-09T14:29:59.365Z,22.30
2019-05-09T14:32:26.873Z,22.70
2019-05-09T14:34:54.063Z,23.20
2019-05-09T14:37:21.311Z,23.30
2019-05-09T14:39:58.026Z,23.50
2019-05-09T14:42:19.065Z,23.70
2019-05-09T14:44:47.976Z,23.80
2019-05-09T14:47:17.452Z,23.70
2019-05-09T14:49:44.749Z,23.30
2019-05-09T14:52:12.661Z,23.10
2019-05-09T14:54:39.736Z,22.80
2019-05-09T14:57:09.461Z,22.60
2019-05-09T14:59:38.209Z,22.40
2019-05-09T15:02:05.228Z,22.20
2019-05-09T15:04:32.903Z,22.00
2019-05-09T15:06:59.964Z,21.90
2019-05-09T15:09:28.462Z,21.70
2019-05-09T15:11:58.264Z,21.70
2019-05-09T15:14:24.682Z,21.90
2019-05-09T15:16:54.287Z,22.20
2019-05-09T15:19:21.361Z,21.90
2019-05-09T15:21:48.992Z,21.90
2019-05-09T15:24:19.606Z,21.50
2019-05-09T15:26:47.943Z,21.30
2019-05-09T15:29:15.850Z,21.20
2019-05-09T15:31:44.798Z,20.90
2019-05-09T15:34:12.313Z,20.70
2019-05-09T16:07:20.546Z,20.10
2019-05-09T16:09:48.288Z,20.30
2019-05-09T16:12:15.481Z,20.60
2019-05-09T16:14:42.535Z,20.90
2019-05-09T16:17:09.602Z,20.70
2019-05-09T16:19:37.809Z,21.00
2019-05-09T16:22:05.086Z,21.20
2019-05-09T16:24:32.126Z,21.20
2019-05-09T16:26:59.685Z,21.30
2019-05-09T16:29:28.514Z,21.40
2019-05-09T16:31:57.908Z,21.50
2019-05-09T16:34:28.203Z,21.50
2019-05-09T16:36:55.130Z,21.50
2019-05-09T16:39:22.221Z,21.50
2019-05-09T16:41:49.875Z,21.30
2019-05-09T16:44:18.283Z,21.20
2019-05-09T16:46:48.175Z,21.00
2019-05-09T16:49:17.591Z,20.90
2019-05-09T16:51:43.972Z,20.80
2019-05-09T16:54:11.029Z,20.80
2019-05-09T16:56:38.400Z,20.50
2019-05-09T16:59:08.077Z,20.40
2019-05-09T17:01:39.455Z,20.40
2019-05-09T17:04:08.189Z,20.50
2019-05-09T17:06:37.902Z,20.70
2019-05-09T17:09:04.847Z,20.90
2019-05-09T17:11:31.913Z,21.20
2019-05-09T17:13:59.019Z,21.30
2019-05-09T17:16:28.280Z,21.10
2019-05-09T17:18:55.068Z,21.50
2019-05-09T17:21:38.999Z,21.90
2019-05-09T17:24:14.113Z,22.10
2019-05-09T17:26:41.661Z,22.50
2019-05-09T17:29:08.723Z,22.80
2019-05-09T17:31:38.295Z,22.80
2019-05-09T17:34:05.343Z,22.50
2019-05-09T17:36:32.424Z,21.90
2019-05-09T17:38:59.503Z,21.40
2019-05-09T17:41:28.426Z,20.90
2019-05-09T17:43:58.108Z,20.40
2019-05-09T17:46:27.389Z,20.00
2019-05-09T17:48:54.344Z,19.50
2019-05-09T17:51:32.570Z,19.30
2019-05-09T17:53:52.277Z,19.10
2019-05-09T17:56:19.488Z,18.80
2019-05-09T17:58:48.602Z,18.60
2019-05-09T18:01:18.036Z,18.30
2019-05-09T18:03:48.049Z,18.20
2019-05-09T18:06:14.889Z,18.00
2019-05-09T18:08:42.121Z,17.90
2019-05-09T18:11:12.743Z,17.80
2019-05-09T18:13:38.685Z,17.80
2019-05-09T18:16:06.008Z,17.80
2019-05-09T18:18:34.323Z,17.50
2019-05-09T18:21:01.383Z,17.40
2019-05-09T18:23:29.758Z,17.30
2019-05-09T18:25:58.536Z,17.30
2019-05-09T18:28:25.904Z,17.30
2019-05-09T18:30:52.946Z,17.20
2019-05-09T18:33:23.240Z,17.20
2019-05-09T18:35:50.334Z,17.00
2019-05-09T18:38:29.361Z,16.80
2019-05-09T18:40:57.949Z,16.80
2019-05-09T18:43:27.497Z,16.60
2019-05-09T18:45:54.372Z,16.20
2019-05-09T18:48:21.428Z,16.00
2019-05-09T18:50:48.706Z,15.90
2019-05-09T18:53:15.761Z,15.80
2019-05-09T18:55:42.818Z,15.90
2019-05-09T18:58:10.980Z,15.90
2019-05-09T19:00:38.342Z,15.70
2019-05-09T19:03:05.395Z,15.90
2019-05-09T19:05:32.463Z,15.70
2019-05-09T19:07:59.485Z,15.60
2019-05-09T19:10:27.162Z,15.70
2019-05-09T19:12:54.641Z,15.90
2019-05-09T19:18:11.829Z,15.60
2019-05-09T19:20:52.883Z,15.50
2019-05-09T19:23:20.059Z,15.60
2019-05-09T19:25:47.136Z,15.60
2019-05-09T19:28:14.300Z,15.60
2019-05-09T19:30:41.414Z,15.40
2019-05-09T19:33:08.644Z,15.40
2019-05-09T19:35:37.162Z,15.20
2019-05-09T19:38:04.381Z,15.10
2019-05-09T19:40:32.515Z,15.20
2019-05-09T19:42:59.705Z,15.50
2019-05-09T19:45:40.345Z,15.40
2019-05-09T19:48:07.505Z,15.40
2019-05-09T19:50:34.766Z,15.50
2019-05-09T19:53:02.022Z,15.50
2019-05-09T19:55:29.161Z,15.40
2019-05-09T19:57:57.362Z,15.60
2019-05-09T20:00:24.692Z,15.60
2019-05-09T20:02:52.924Z,15.60
2019-05-09T20:05:20.324Z,15.60
2019-05-09T20:07:47.471Z,15.50
2019-05-09T20:10:16.892Z,15.10
2019-05-09T20:13:03.598Z,15.10
2019-05-09T20:15:30.725Z,15.00
2019-05-09T20:17:57.875Z,15.10
2019-05-09T20:20:26.173Z,15.10
2019-05-09T20:22:53.593Z,15.00
2019-05-09T20:25:22.192Z,14.90
2019-05-09T20:27:49.336Z,14.90
2019-05-09T20:30:16.595Z,15.00
2019-05-09T20:32:43.776Z,15.10
2019-05-09T20:35:10.918Z,15.10
2019-05-09T20:37:37.936Z,15.10
2019-05-09T20:40:07.227Z,15.20
2019-05-09T20:42:34.293Z,15.00
2019-05-09T20:45:01.532Z,15.10
2019-05-09T20:47:28.607Z,15.00
2019-05-09T20:49:55.695Z,15.10
2019-05-09T20:52:22.876Z,15.10
2019-05-09T20:54:50.127Z,15.10
2019-05-09T20:57:17.272Z,15.20
2019-05-09T21:02:19.866Z,15.10
2019-05-09T21:04:47.011Z,15.10
2019-05-09T21:07:14.156Z,15.10
2019-05-09T21:09:41.267Z,15.10
2019-05-09T21:12:11.077Z,15.10
2019-05-09T21:14:37.553Z,15.10
2019-05-09T21:17:04.707Z,15.10
2019-05-09T21:19:31.889Z,15.10
2019-05-09T21:21:59.413Z,15.20
2019-05-09T21:24:26.558Z,15.10
2019-05-09T21:26:53.715Z,15.10
2019-05-09T21:29:21.053Z,15.10
2019-05-09T21:31:48.082Z,15.10
2019-05-09T21:34:15.443Z,15.20
2019-05-09T21:36:43.643Z,15.30
2019-05-09T21:39:10.715Z,15.40
2019-05-09T21:41:37.754Z,15.40
2019-05-09T21:44:04.828Z,15.50
2019-05-09T21:46:31.887Z,15.40
2019-05-09T21:48:58.980Z,15.40
2019-05-09T21:51:26.057Z,15.20
2019-05-09T21:53:53.123Z,15.20
2019-05-09T21:56:20.412Z,15.20
2019-05-09T21:58:47.503Z,15.20
2019-05-09T22:01:17.895Z,15.30
2019-05-09T22:03:46.335Z,15.20
2019-05-09T22:06:13.745Z,15.10
2019-05-09T22:08:40.816Z,15.20
2019-05-09T22:11:07.896Z,15.30
2019-05-09T22:13:36.861Z,15.30
2019-05-09T22:16:06.105Z,15.30
2019-05-09T22:18:34.333Z,15.20
2019-05-09T22:21:01.626Z,15.20
2019-05-09T22:23:28.776Z,15.20
2019-05-09T22:25:55.935Z,15.20
2019-05-09T22:28:23.282Z,15.10
2019-05-09T22:30:50.368Z,15.20
2019-05-09T22:33:17.570Z,15.10
2019-05-09T22:35:44.725Z,15.40
2019-05-09T22:38:11.876Z,15.30
2019-05-09T22:40:38.988Z,15.30
2019-05-09T22:43:06.065Z,15.30
2019-05-09T22:45:33.424Z,15.30
2019-05-09T22:48:00.576Z,15.20
2019-05-09T22:50:27.985Z,15.20
2019-05-09T22:52:55.170Z,15.40
2019-05-09T22:55:22.250Z,15.40
2019-05-09T22:57:49.480Z,15.40
2019-05-09T23:00:16.923Z,15.30
2019-05-09T23:02:44.079Z,15.30
2019-05-09T23:05:11.553Z,15.30
2019-05-09T23:10:06.223Z,15.30
2019-05-09T23:12:33.393Z,15.20
2019-05-09T23:15:00.637Z,15.30
2019-05-09T23:17:28.303Z,15.20
2019-05-09T23:19:55.554Z,15.20
2019-05-09T23:22:24.641Z,15.10
2019-05-09T23:24:51.792Z,15.10
2019-05-09T23:27:19.796Z,14.90
2019-05-09T23:29:46.902Z,15.10
2019-05-09T23:32:18.685Z,15.00
2019-05-09T23:34:45.813Z,15.10
2019-05-09T23:37:12.962Z,15.10
2019-05-09T23:39:44.761Z,15.10
2019-05-09T23:42:12.071Z,15.20
2019-05-09T23:44:39.130Z,15.10
2019-05-09T23:47:06.364Z,15.00
2019-05-09T23:49:33.524Z,15.00
2019-05-09T23:52:00.665Z,15.10
2019-05-09T23:54:48.712Z,15.10
2019-05-09T23:57:34.287Z,15.20
